createdAt,value
2022-08-25T00:00:07.337Z,65
2022-08-25T00:15:03.828Z,65
2022-08-25T00:30:03.409Z,65
2022-08-25T00:45:03.638Z,65
2022-08-25T01:00:09.515Z,65
2022-08-25T01:15:03.120Z,65
2022-08-25T01:30:07.134Z,65
2022-08-25T01:45:03.053Z,65
2022-08-25T02:00:05.801Z,65
2022-08-25T02:15:02.821Z,65
2022-08-25T02:30:05.857Z,65
2022-08-25T02:45:02.668Z,65
2022-08-25T03:00:05.671Z,65
2022-08-25T03:15:05.270Z,65
2022-08-25T03:30:07.118Z,66
2022-08-25T03:45:03.754Z,66
2022-08-25T04:00:06.358Z,66
2022-08-25T04:15:03.345Z,66
2022-08-25T04:30:07.673Z,65
2022-08-25T04:45:04.884Z,65
2022-08-25T05:00:08.248Z,65
2022-08-25T05:15:03.975Z,65
2022-08-25T05:30:05.940Z,65
2022-08-25T05:45:03.005Z,66
2022-08-25T06:00:09.205Z,67
2022-08-25T06:15:02.545Z,67
2022-08-25T06:30:08.332Z,68
2022-08-25T06:45:02.127Z,68
2022-08-25T07:00:06.973Z,68
2022-08-25T07:15:20.627Z,69
2022-08-25T07:30:11.579Z,69
2022-08-25T07:45:03.709Z,69
2022-08-25T08:00:09.244Z,70
2022-08-25T08:15:10.775Z,70
2022-08-25T08:30:06.674Z,70
2022-08-25T08:45:04.545Z,70
2022-08-25T09:00:06.808Z,70
2022-08-25T09:15:13.523Z,70
2022-08-25T09:30:10.297Z,70
2022-08-25T09:45:03.275Z,70
2022-08-25T10:00:05.797Z,70
2022-08-25T10:15:03.494Z,70
2022-08-25T10:30:09.469Z,70
2022-08-25T10:45:04.941Z,70
2022-08-25T11:00:07.904Z,70
2022-08-25T11:15:04.233Z,70
2022-08-25T11:30:07.205Z,70
2022-08-25T11:45:04.953Z,70
2022-08-25T12:00:09.369Z,70
2022-08-25T12:15:04.193Z,70
2022-08-25T12:30:05.382Z,70
2022-08-25T12:45:04.074Z,69
2022-08-25T13:00:07.606Z,69
2022-08-25T13:15:05.135Z,69
2022-08-25T13:30:08.407Z,69
2022-08-25T13:45:04.502Z,68
2022-08-25T14:00:06.232Z,68
2022-08-25T14:15:04.149Z,68
2022-08-25T14:30:07.481Z,68
2022-08-25T14:45:02.710Z,68
2022-08-25T15:00:11.513Z,68
2022-08-25T15:15:04.937Z,67
2022-08-25T15:30:05.977Z,67
2022-08-25T15:45:05.370Z,67
2022-08-25T16:00:10.116Z,66
2022-08-25T16:15:04.176Z,66
2022-08-25T16:30:05.873Z,66
2022-08-25T16:45:05.416Z,66
2022-08-25T17:00:06.482Z,66
2022-08-25T17:15:06.227Z,66
2022-08-25T17:30:09.606Z,66
2022-08-25T17:45:04.160Z,66
2022-08-25T18:00:10.585Z,66
2022-08-25T18:15:02.558Z,66
2022-08-25T18:30:09.209Z,67
2022-08-25T18:45:04.861Z,67
2022-08-25T19:00:07.931Z,68
2022-08-25T19:15:05.054Z,68
2022-08-25T19:30:05.881Z,68
2022-08-25T19:45:02.546Z,69
2022-08-25T20:00:06.150Z,69
2022-08-25T20:15:02.533Z,70
2022-08-25T20:30:07.622Z,70
2022-08-25T20:45:02.349Z,70
2022-08-25T21:00:09.582Z,71
2022-08-25T21:15:03.329Z,71
2022-08-25T21:30:07.293Z,71
2022-08-25T21:45:03.078Z,72
2022-08-25T22:00:04.738Z,72
2022-08-25T22:15:03.357Z,72
2022-08-25T22:30:05.339Z,73
2022-08-25T22:45:03.119Z,73
2022-08-25T23:00:07.918Z,73
2022-08-25T23:15:05.398Z,73
2022-08-25T23:30:09.158Z,73
2022-08-25T23:45:02.955Z,73
